Port Heiden, Alaska
Current Conditions -  °F | °C
As of 5:36 PM on Saturday 25 Oct 2014 (Local Time) from PAPH Reporting Station
Overcast Overcast  
Wind Chill:   Ceiling: 2700
Heat Index:   Visibility: 10mi
Dew Point:   Wind: 12mph
Humidity: 70%   Direction: 230°SW
Pressure: 29.88"   Gusts: 16mph
Location:  56.95°N, 158.63°W
Report Text: PAPH 260136Z AUTO 23010G14KT 10SM SCT019 BKN027 OVC050 06/01 A2988 RMK AO1
Loading
Personal Weather Stations






























Interactive Weather Map
Tropical Storm Tracking
New forecast layout! Learn more

10-Day Weather Forecast

Advertisements
Track Severe Weather on mobile